Terminal Aerodrome Forecast
Issued by NWS

Home | Current Version | Previous Version | Text Only | Print | Product List | Glossary On
Versions: 1 2 3 4 5 6 7 8 9 10 11 12 13 14 15 16 17
540
FTUS43 KLSX 180520
TAFSUS
TAF
KSUS 180520Z 1806/1906 10009KT P6SM FEW200
     FM181000 11008G15KT P6SM BKN100
     FM181400 23012G28KT P6SM BKN080
     FM181800 27019G35KT P6SM BKN060
     FM190100 30014G25KT P6SM BKN045=

USA.gov is the U.S. government's official web portal to all federal, state and local government web resources and services.